Clear Creek, California
Current Conditions -  °F | °C
As of 1:55 PM on Sunday 25 Jan 2015 (Local Time) from KCIC Reporting Station
Few Clouds Few Clouds  
Wind Chill: 55°   Ceiling: Unl
Heat Index: 55°   Visibility: 10mi
Dew Point: 45°   Wind: 0mph
Humidity: 67%   Direction: NA
Pressure: 30.07"   Gusts: NA
Location:  40.2872°N, 121.096°W
Report Text: KCIC 252155Z 00000KT 10SM FEW250 13/07 A3007
Loading
Personal Weather Stations






























Interactive Weather Map New forecast layout! Learn more

10-Day Weather Forecast

Advertisements
Track Severe Weather on mobile